Time;durP1;ratioP1;P1;durP2;ratioP2;P2;SDS_P1;SDS_P2;PMS_P1;PMS_P2;Temp;Humidity;BMP_temperature;BMP_pressure;BME280_temperature;BME280_humidity;BME280_pressure;Samples;Min_cycle;Max_cycle;Signal;HPM_P1;HPM_P2
2022/04/03 00:00:07;;;;;;;1.10;1.00;;;22.30;48.40;;;;;;5076968;28;20432;-87
2022/04/03 00:02:34;;;;;;;1.10;0.90;;;22.30;48.40;;;;;;5076997;28;20469;-88
2022/04/03 00:05:00;;;;;;;1.10;1.00;;;22.30;48.40;;;;;;5076714;28;20440;-87
2022/04/03 00:07:27;;;;;;;1.00;0.90;;;22.50;48.50;;;;;;5076841;28;20445;-88
2022/04/03 00:09:54;;;;;;;1.10;1.00;;;22.30;48.30;;;;;;5076795;28;20467;-87
2022/04/03 00:12:23;;;;;;;1.20;0.90;;;22.30;48.30;;;;;;5076860;28;20433;-88
2022/04/03 00:14:50;;;;;;;1.00;0.90;;;22.30;48.30;;;;;;5077101;28;20498;-88
2022/04/03 00:17:17;;;;;;;1.00;0.80;;;22.30;48.30;;;;;;5076269;28;20488;-87
2022/04/03 00:19:44;;;;;;;1.10;0.90;;;22.30;48.30;;;;;;5076676;28;20444;-87
2022/04/03 00:22:12;;;;;;;1.70;1.17;;;22.30;48.30;;;;;;5077019;28;20463;-87
2022/04/03 00:24:39;;;;;;;1.00;0.73;;;22.20;48.10;;;;;;5077103;28;20446;-87
2022/04/03 00:27:07;;;;;;;1.20;0.80;;;22.20;48.10;;;;;;5076792;28;20498;-87
2022/04/03 00:29:36;;;;;;;1.00;0.80;;;22.20;48.10;;;;;;5076342;28;20496;-87
2022/04/03 00:32:03;;;;;;;1.00;0.80;;;22.20;48.10;;;;;;5076195;28;20457;-87
2022/04/03 00:34:30;;;;;;;1.00;0.80;;;22.20;48.10;;;;;;5076229;28;20437;-87
2022/04/03 00:36:56;;;;;;;1.10;1.00;;;22.20;48.10;;;;;;5076124;28;20838;-87
2022/04/03 00:39:23;;;;;;;1.17;0.90;;;22.30;48.70;;;;;;5075783;28;20958;-88
2022/04/03 00:41:50;;;;;;;1.00;0.80;;;22.20;48.00;;;;;;5076139;28;20527;-87
2022/04/03 00:44:18;;;;;;;1.17;1.07;;;22.20;48.00;;;;;;5076034;28;20433;-88
2022/04/03 00:46:47;;;;;;;1.10;0.80;;;22.20;48.00;;;;;;5075880;28;20444;-88
2022/04/03 00:49:14;;;;;;;1.17;1.07;;;22.20;47.90;;;;;;5076011;28;20445;-87
2022/04/03 00:51:41;;;;;;;1.10;0.90;;;22.20;47.90;;;;;;5075786;28;20429;-87
2022/04/03 00:54:08;;;;;;;1.10;0.80;;;22.20;48.00;;;;;;5075989;28;20524;-88
2022/04/03 00:56:35;;;;;;;1.00;0.80;;;22.20;47.90;;;;;;5075556;28;20490;-88
2022/04/03 00:59:02;;;;;;;1.53;1.00;;;22.20;47.90;;;;;;5075737;28;20487;-88
2022/04/03 01:01:29;;;;;;;1.77;1.10;;;22.20;47.90;;;;;;5075671;28;20488;-88
2022/04/03 01:03:57;;;;;;;1.03;0.90;;;22.10;47.80;;;;;;5075921;28;20440;-88
2022/04/03 01:06:24;;;;;;;1.20;0.97;;;22.20;47.90;;;;;;5075213;28;20436;-88
2022/04/03 01:08:51;;;;;;;0.90;0.77;;;22.10;47.80;;;;;;5075486;28;20441;-88
2022/04/03 01:11:21;;;;;;;1.27;1.00;;;22.20;47.80;;;;;;5075556;28;20440;-88
2022/04/03 01:13:49;;;;;;;1.10;0.90;;;22.10;47.80;;;;;;5075780;28;20820;-88
2022/04/03 01:16:16;;;;;;;1.20;0.97;;;22.10;47.70;;;;;;5075622;28;20444;-87
2022/04/03 01:18:43;;;;;;;1.10;0.90;;;22.20;47.80;;;;;;5075096;28;20488;-88
2022/04/03 01:21:11;;;;;;;0.97;0.80;;;22.20;47.80;;;;;;5075290;28;20440;-88
2022/04/03 01:23:38;;;;;;;1.00;0.90;;;22.20;47.70;;;;;;5075000;28;20464;-88
2022/04/03 01:26:07;;;;;;;1.20;0.90;;;22.10;47.70;;;;;;5075148;28;20476;-88
2022/04/03 01:28:34;;;;;;;1.13;1.00;;;22.10;47.70;;;;;;5075252;28;20433;-88
2022/04/03 01:31:01;;;;;;;1.00;0.70;;;22.10;47.70;;;;;;5075212;28;20951;-88
2022/04/03 01:33:28;;;;;;;1.10;0.90;;;22.10;47.70;;;;;;5075227;28;20448;-88
2022/04/03 01:35:55;;;;;;;1.10;0.93;;;22.10;47.70;;;;;;5074859;28;20936;-89
2022/04/03 01:38:21;;;;;;;1.00;0.80;;;22.10;47.70;;;;;;5075011;28;20476;-88
2022/04/03 01:40:48;;;;;;;1.00;0.90;;;22.10;47.70;;;;;;5074471;28;20445;-88
2022/04/03 01:43:16;;;;;;;1.20;0.90;;;22.10;47.60;;;;;;5074823;28;20932;-88
2022/04/03 01:45:43;;;;;;;1.93;0.80;;;22.10;47.60;;;;;;5074987;28;20445;-88
2022/04/03 01:48:11;;;;;;;1.93;1.00;;;22.10;47.60;;;;;;5074679;28;20444;-88
2022/04/03 01:50:38;;;;;;;1.13;0.90;;;22.00;47.50;;;;;;5074865;28;20441;-88
2022/04/03 01:53:05;;;;;;;1.20;0.90;;;22.20;47.70;;;;;;5074769;28;20456;-88
2022/04/03 01:55:32;;;;;;;1.00;0.70;;;22.20;47.60;;;;;;5074663;28;20503;-88
2022/04/03 01:58:00;;;;;;;1.00;0.90;;;22.00;47.50;;;;;;5074559;28;20481;-88
2022/04/03 02:00:28;;;;;;;1.10;0.90;;;22.00;47.50;;;;;;5074670;28;20771;-88
2022/04/03 02:02:55;;;;;;;1.00;0.80;;;22.20;47.60;;;;;;5074285;28;20440;-88
2022/04/03 02:05:22;;;;;;;1.33;0.90;;;22.00;47.50;;;;;;5074329;28;20440;-86
2022/04/03 02:07:49;;;;;;;1.50;1.00;;;22.00;47.50;;;;;;5074426;28;20503;-87
2022/04/03 02:10:16;;;;;;;1.30;1.00;;;22.00;47.50;;;;;;5074577;28;20495;-87
2022/04/03 02:12:44;;;;;;;1.20;0.90;;;22.00;47.40;;;;;;5074198;28;20532;-87
2022/04/03 02:15:12;;;;;;;1.00;0.80;;;22.00;47.50;;;;;;5074171;28;20791;-87
2022/04/03 02:17:41;;;;;;;1.23;0.90;;;22.00;47.40;;;;;;5073879;28;20468;-88
2022/04/03 02:20:10;;;;;;;1.30;0.90;;;22.00;47.40;;;;;;5074276;28;20437;-88
2022/04/03 02:22:37;;;;;;;1.00;0.70;;;22.00;47.40;;;;;;5074393;28;20563;-88
2022/04/03 02:25:09;;;;;;;1.10;0.83;;;22.00;47.40;;;;;;5074208;28;20437;-87
2022/04/03 02:27:36;;;;;;;1.10;0.90;;;22.00;47.40;;;;;;5074039;28;20432;-87
2022/04/03 02:30:04;;;;;;;1.00;0.90;;;22.10;47.50;;;;;;5073950;28;20445;-88
2022/04/03 02:32:31;;;;;;;1.07;0.83;;;22.00;47.40;;;;;;5074009;28;20461;-87
2022/04/03 02:34:59;;;;;;;1.03;0.80;;;22.10;47.50;;;;;;5074000;28;20447;-87
2022/04/03 02:37:26;;;;;;;1.10;0.97;;;22.00;47.40;;;;;;5073774;28;20802;-87
2022/04/03 02:39:53;;;;;;;1.10;0.80;;;22.00;47.40;;;;;;5073810;28;20531;-88
2022/04/03 02:42:20;;;;;;;1.20;1.00;;;22.00;47.40;;;;;;5073629;28;20451;-88
2022/04/03 02:44:46;;;;;;;1.20;0.90;;;21.90;47.30;;;;;;5073777;28;20791;-87
2022/04/03 02:47:14;;;;;;;1.10;0.80;;;21.90;47.30;;;;;;5073778;28;20806;-88
2022/04/03 02:49:40;;;;;;;1.00;0.80;;;21.90;47.40;;;;;;5073699;28;20527;-87
2022/04/03 02:52:09;;;;;;;1.10;0.90;;;21.90;47.30;;;;;;5073052;28;20443;-88
2022/04/03 02:54:35;;;;;;;1.10;1.00;;;21.90;47.30;;;;;;5073919;28;20441;-87
2022/04/03 02:57:02;;;;;;;1.20;0.80;;;21.90;47.30;;;;;;5073802;28;20950;-87
2022/04/03 02:59:29;;;;;;;0.97;0.77;;;21.90;47.30;;;;;;5073779;28;20508;-87
2022/04/03 03:01:56;;;;;;;1.00;0.80;;;21.90;47.30;;;;;;5073530;28;20479;-87
2022/04/03 03:04:23;;;;;;;1.20;0.90;;;21.90;47.30;;;;;;5073486;28;20445;-87
2022/04/03 03:06:50;;;;;;;0.90;0.70;;;21.90;47.20;;;;;;5073311;28;20445;-87
2022/04/03 03:09:18;;;;;;;1.10;0.93;;;21.80;47.20;;;;;;5073764;28;20449;-87
2022/04/03 03:11:45;;;;;;;1.10;0.80;;;21.90;47.30;;;;;;5073544;28;20433;-87
2022/04/03 03:14:12;;;;;;;1.10;0.80;;;21.90;47.30;;;;;;5073403;28;20445;-87
2022/04/03 03:16:39;;;;;;;1.13;0.97;;;21.80;47.20;;;;;;5073252;28;20433;-87
2022/04/03 03:19:06;;;;;;;1.10;0.90;;;21.80;47.20;;;;;;5073049;28;20547;-87
2022/04/03 03:21:32;;;;;;;0.90;0.70;;;21.80;47.20;;;;;;5073743;28;20444;-88
2022/04/03 03:23:59;;;;;;;1.00;0.80;;;21.80;47.20;;;;;;5073098;28;20447;-88
2022/04/03 03:26:27;;;;;;;1.10;1.00;;;21.80;47.20;;;;;;5073059;28;20445;-87
2022/04/03 03:28:54;;;;;;;1.00;0.77;;;21.90;47.20;;;;;;5073370;28;20807;-88
2022/04/03 03:31:21;;;;;;;1.10;0.70;;;21.80;47.10;;;;;;5073484;28;20465;-88
2022/04/03 03:33:48;;;;;;;1.10;0.97;;;22.00;47.30;;;;;;5073256;28;20441;-88
2022/04/03 03:36:16;;;;;;;1.10;1.00;;;21.80;47.20;;;;;;5073259;28;20437;-88
2022/04/03 03:38:43;;;;;;;1.77;1.00;;;21.80;47.20;;;;;;5073310;28;20584;-88
2022/04/03 03:41:10;;;;;;;0.90;0.70;;;21.80;47.10;;;;;;5073235;28;20440;-87
2022/04/03 03:43:38;;;;;;;0.97;0.80;;;21.80;47.20;;;;;;5073483;28;20448;-88
2022/04/03 03:46:05;;;;;;;0.90;0.70;;;21.90;47.20;;;;;;5073625;28;20957;-88
2022/04/03 03:48:32;;;;;;;1.10;0.80;;;21.80;47.10;;;;;;5073168;28;20931;-87
2022/04/03 03:50:58;;;;;;;1.00;0.87;;;21.80;47.10;;;;;;5073402;28;20441;-87
2022/04/03 03:53:25;;;;;;;1.10;0.90;;;21.70;47.00;;;;;;5073316;28;20441;-87
2022/04/03 03:55:52;;;;;;;0.90;0.70;;;21.80;47.00;;;;;;5073190;28;20455;-87
2022/04/03 03:58:19;;;;;;;1.00;0.80;;;21.80;47.00;;;;;;5073894;28;20472;-87
2022/04/03 04:00:47;;;;;;;1.00;0.83;;;21.70;47.00;;;;;;5055602;28;20470;-87
2022/04/03 04:03:14;;;;;;;1.20;0.90;;;21.70;47.00;;;;;;5073306;28;20441;-87
2022/04/03 04:05:41;;;;;;;1.10;0.87;;;21.70;46.90;;;;;;5058898;28;20451;-87
2022/04/03 04:08:08;;;;;;;1.00;0.80;;;21.80;47.10;;;;;;5076562;28;20444;-87
2022/04/03 04:10:35;;;;;;;1.20;0.83;;;21.70;47.00;;;;;;5076891;28;20519;-87
2022/04/03 04:13:04;;;;;;;1.00;0.70;;;21.70;47.00;;;;;;5076687;28;20445;-87
2022/04/03 04:15:30;;;;;;;1.23;1.00;;;21.70;47.00;;;;;;5076777;28;20445;-87
2022/04/03 04:17:59;;;;;;;1.10;0.83;;;21.70;47.00;;;;;;5076451;28;20494;-87
2022/04/03 04:20:26;;;;;;;1.00;0.80;;;21.70;46.90;;;;;;5076456;28;20484;-87
2022/04/03 04:22:53;;;;;;;1.20;1.00;;;21.70;46.90;;;;;;5076508;28;20476;-87
2022/04/03 04:25:20;;;;;;;1.30;1.00;;;21.70;46.90;;;;;;5076362;28;20433;-87
2022/04/03 04:27:47;;;;;;;1.00;0.80;;;21.70;46.90;;;;;;5076424;28;20940;-87
2022/04/03 04:30:15;;;;;;;1.00;0.80;;;21.60;46.80;;;;;;5061974;28;20472;-87
2022/04/03 04:32:43;;;;;;;1.10;0.90;;;21.70;46.90;;;;;;5064772;28;20966;-87
2022/04/03 04:35:13;;;;;;;1.00;0.80;;;21.70;46.90;;;;;;5081475;28;21011;-87
2022/04/03 04:37:41;;;;;;;1.30;0.90;;;21.70;46.90;;;;;;5086227;28;20439;-86
2022/04/03 04:40:10;;;;;;;1.83;0.80;;;21.60;46.80;;;;;;5077498;28;20481;-87
2022/04/03 04:42:38;;;;;;;1.20;1.00;;;21.60;46.80;;;;;;5076043;28;20437;-86
2022/04/03 04:45:09;;;;;;;1.30;1.10;;;21.70;46.80;;;;;;5076260;28;20440;-87
2022/04/03 04:47:36;;;;;;;1.00;0.80;;;21.70;46.90;;;;;;5076063;28;20437;-87
2022/04/03 04:50:07;;;;;;;1.00;0.90;;;21.60;46.80;;;;;;5075813;28;20453;-87
2022/04/03 04:52:35;;;;;;;1.00;0.80;;;21.60;46.80;;;;;;5075807;28;20445;-86
2022/04/03 04:55:05;;;;;;;1.10;0.90;;;21.70;46.90;;;;;;5075715;28;20441;-87
2022/04/03 04:57:32;;;;;;;1.00;0.80;;;21.60;46.80;;;;;;5058701;28;20444;-87
2022/04/03 04:59:59;;;;;;;1.00;0.80;;;21.80;46.90;;;;;;5075311;28;20488;-87
2022/04/03 05:02:26;;;;;;;1.40;1.00;;;21.60;46.80;;;;;;5058080;28;20464;-87
2022/04/03 05:04:56;;;;;;;1.57;0.80;;;21.60;46.70;;;;;;5075711;28;20440;-85
2022/04/03 05:07:23;;;;;;;1.00;0.80;;;21.60;46.70;;;;;;5075177;28;20430;-87
2022/04/03 05:09:53;;;;;;;1.13;0.80;;;21.80;46.90;;;;;;5075563;28;20966;-86
2022/04/03 05:12:21;;;;;;;1.00;0.83;;;21.60;46.70;;;;;;5075628;28;20447;-87
2022/04/03 05:14:49;;;;;;;1.00;0.90;;;21.50;46.70;;;;;;5074966;28;20443;-87
2022/04/03 05:17:16;;;;;;;1.10;1.00;;;21.50;46.70;;;;;;5074819;28;20503;-87
2022/04/03 05:19:43;;;;;;;1.07;0.90;;;21.60;46.70;;;;;;5075127;28;20830;-87
2022/04/03 05:22:10;;;;;;;1.00;0.80;;;21.50;46.70;;;;;;5075184;28;20912;-87
2022/04/03 05:24:36;;;;;;;1.10;0.80;;;21.50;46.60;;;;;;5075528;28;20441;-87
2022/04/03 05:27:05;;;;;;;1.00;0.80;;;21.60;46.70;;;;;;5074940;28;20452;-87
2022/04/03 05:29:34;;;;;;;1.20;0.90;;;21.50;46.60;;;;;;5074879;28;20441;-87
2022/04/03 05:32:01;;;;;;;1.20;1.00;;;21.50;46.60;;;;;;5074986;28;20468;-87
2022/04/03 05:34:28;;;;;;;1.20;1.00;;;21.50;46.60;;;;;;5075157;28;20468;-88
2022/04/03 05:36:54;;;;;;;1.30;1.00;;;21.60;46.60;;;;;;5075230;28;20445;-88
2022/04/03 05:39:21;;;;;;;1.30;1.10;;;21.70;46.70;;;;;;5074829;28;20832;-88
2022/04/03 05:41:50;;;;;;;3.23;1.57;;;21.50;46.70;;;;;;5075280;28;20441;-88
2022/04/03 05:44:18;;;;;;;1.10;0.90;;;21.50;46.70;;;;;;5075055;28;20495;-88
2022/04/03 05:46:45;;;;;;;1.10;0.90;;;21.50;46.60;;;;;;5074943;28;20792;-88
2022/04/03 05:49:11;;;;;;;1.10;1.00;;;21.50;46.60;;;;;;5074854;28;20447;-88
2022/04/03 05:51:38;;;;;;;1.10;0.80;;;21.70;46.80;;;;;;5074793;28;20429;-88
2022/04/03 05:54:05;;;;;;;1.20;1.00;;;21.50;46.60;;;;;;5074578;28;20441;-88
2022/04/03 05:56:32;;;;;;;1.20;0.90;;;21.40;46.50;;;;;;5074896;28;20441;-87
2022/04/03 05:58:59;;;;;;;1.10;1.00;;;21.50;46.60;;;;;;5074421;28;20473;-88
2022/04/03 06:01:27;;;;;;;0.90;0.70;;;21.50;46.60;;;;;;5075023;28;20465;-88
2022/04/03 06:03:54;;;;;;;1.50;0.97;;;21.50;46.60;;;;;;5075991;28;20449;-88
2022/04/03 06:06:21;;;;;;;1.10;0.90;;;21.50;47.20;;;;;;5075218;28;20437;-88
2022/04/03 06:08:48;;;;;;;1.10;0.83;;;21.50;46.60;;;;;;5076375;28;20444;-87
2022/04/03 06:11:17;;;;;;;1.40;1.20;;;21.50;46.60;;;;;;5076499;28;20441;-88
2022/04/03 06:13:44;;;;;;;1.00;0.90;;;21.70;46.80;;;;;;5075469;28;20444;-88
2022/04/03 06:16:11;;;;;;;1.20;0.90;;;21.50;46.60;;;;;;5074828;28;20448;-88
2022/04/03 06:18:39;;;;;;;1.13;1.03;;;21.50;46.60;;;;;;5074912;28;20469;-88
2022/04/03 06:21:08;;;;;;;1.00;0.90;;;21.40;46.50;;;;;;5075406;28;20512;-88
2022/04/03 06:23:34;;;;;;;1.27;1.00;;;21.40;46.50;;;;;;5074905;28;20948;-88
2022/04/03 06:26:02;;;;;;;1.10;1.00;;;21.40;46.50;;;;;;5074016;28;20452;-88
2022/04/03 06:28:29;;;;;;;1.13;0.90;;;21.40;46.50;;;;;;5073847;28;21133;-88
2022/04/03 06:30:56;;;;;;;1.10;1.00;;;21.40;46.40;;;;;;5073786;28;20461;-88
2022/04/03 06:33:23;;;;;;;1.57;1.10;;;21.40;46.50;;;;;;5074024;28;20444;-88
2022/04/03 06:35:51;;;;;;;1.10;1.00;;;21.40;46.40;;;;;;5073901;28;20440;-88
2022/04/03 06:38:18;;;;;;;1.40;1.30;;;21.40;46.40;;;;;;5073635;28;20932;-88
2022/04/03 06:40:49;;;;;;;1.10;1.00;;;21.40;46.40;;;;;;5074001;28;21017;-88
2022/04/03 06:43:18;;;;;;;1.20;1.03;;;21.50;46.50;;;;;;5074015;28;20501;-88
2022/04/03 06:45:45;;;;;;;1.10;0.87;;;21.40;46.40;;;;;;5073848;28;20441;-88
2022/04/03 06:48:12;;;;;;;1.10;1.00;;;21.40;46.40;;;;;;5073606;28;20447;-88
2022/04/03 06:50:38;;;;;;;1.03;0.80;;;21.40;46.40;;;;;;5073602;28;20444;-88
2022/04/03 06:53:07;;;;;;;1.00;0.90;;;21.40;46.30;;;;;;5073824;28;20448;-88
2022/04/03 06:55:34;;;;;;;1.10;0.90;;;21.40;46.40;;;;;;5073791;28;20437;-88
2022/04/03 06:58:01;;;;;;;1.30;1.20;;;21.40;46.30;;;;;;5076178;28;20452;-87
2022/04/03 07:00:28;;;;;;;1.17;1.07;;;21.40;46.20;;;;;;5074844;28;20498;-88
2022/04/03 07:02:56;;;;;;;1.20;0.90;;;21.50;46.40;;;;;;5076072;28;20441;-88
2022/04/03 07:05:23;;;;;;;1.00;0.83;;;21.40;46.20;;;;;;5075728;28;20436;-87
2022/04/03 07:07:52;;;;;;;1.00;0.90;;;21.40;46.20;;;;;;5073735;28;20475;-87
2022/04/03 07:10:21;;;;;;;1.30;1.20;;;21.50;46.50;;;;;;5073351;28;20942;-86
2022/04/03 07:12:48;;;;;;;1.07;0.90;;;21.50;46.40;;;;;;5073505;28;20950;-87
2022/04/03 07:15:15;;;;;;;1.13;1.03;;;21.50;46.40;;;;;;5073471;28;20436;-88
2022/04/03 07:17:43;;;;;;;1.10;0.97;;;21.70;46.60;;;;;;5072482;28;20465;-86
2022/04/03 07:20:13;;;;;;;1.30;1.13;;;21.50;46.50;;;;;;5073005;28;20563;-86
2022/04/03 07:22:40;;;;;;;3.17;1.20;;;21.50;46.40;;;;;;5073180;28;20818;-85
2022/04/03 07:25:07;;;;;;;4.40;1.53;;;21.60;46.50;;;;;;5072989;28;20441;-87
2022/04/03 07:27:35;;;;;;;1.50;1.30;;;21.50;45.00;;;;;;5073025;28;20445;-87
2022/04/03 07:30:03;;;;;;;1.30;1.10;;;21.60;45.50;;;;;;5072607;28;20442;-88
2022/04/03 07:32:30;;;;;;;4.23;0.90;;;21.60;45.80;;;;;;5073241;28;21178;-92
2022/04/03 07:34:56;;;;;;;1.47;0.90;;;21.80;46.30;;;;;;5073299;28;20445;-88
2022/04/03 07:37:23;;;;;;;1.47;1.00;;;21.60;46.20;;;;;;5073306;28;20784;-88
2022/04/03 07:39:51;;;;;;;1.30;1.20;;;21.60;46.20;;;;;;5075903;28;20494;-88
2022/04/03 07:42:18;;;;;;;2.40;1.20;;;21.70;46.20;;;;;;5076746;28;20571;-88
2022/04/03 07:44:46;;;;;;;1.47;1.00;;;21.70;46.30;;;;;;5076609;28;20992;-88
2022/04/03 07:47:14;;;;;;;1.30;1.10;;;21.70;46.30;;;;;;5076894;28;20440;-88
2022/04/03 07:49:41;;;;;;;1.50;0.93;;;21.70;46.30;;;;;;5076781;28;20451;-87
2022/04/03 07:52:08;;;;;;;1.23;1.13;;;21.70;46.30;;;;;;5076911;28;20436;-86
2022/04/03 07:54:35;;;;;;;1.10;1.00;;;21.80;46.40;;;;;;5077450;28;20441;-86
2022/04/03 07:57:02;;;;;;;1.40;1.30;;;21.80;46.50;;;;;;5078271;28;20535;-86
2022/04/03 07:59:28;;;;;;;3.00;1.30;;;21.80;46.50;;;;;;5078008;28;20447;-88
2022/04/03 08:01:56;;;;;;;1.70;1.10;;;21.80;46.50;;;;;;5077649;28;20472;-86
2022/04/03 08:04:23;;;;;;;1.73;1.20;;;22.00;46.80;;;;;;5076534;28;20441;-87
2022/04/03 08:06:50;;;;;;;1.30;1.00;;;21.90;46.70;;;;;;5076754;28;20440;-86
2022/04/03 08:09:17;;;;;;;1.10;1.00;;;21.90;47.00;;;;;;5076043;28;20919;-87
2022/04/03 08:11:44;;;;;;;2.70;1.20;;;21.90;47.00;;;;;;5076173;28;20451;-84
2022/04/03 08:14:11;;;;;;;1.10;1.00;;;21.80;46.70;;;;;;5076112;28;20433;-84
2022/04/03 08:16:37;;;;;;;1.60;1.00;;;21.90;46.20;;;;;;5076144;28;20445;-84
2022/04/03 08:19:06;;;;;;;2.27;1.07;;;22.00;46.00;;;;;;5075923;28;20983;-85
2022/04/03 08:21:33;;;;;;;4.70;1.00;;;21.80;45.80;;;;;;5076104;28;20512;-93
2022/04/03 08:23:59;;;;;;;1.20;1.10;;;21.80;45.80;;;;;;5076355;28;20449;-84
2022/04/03 08:26:26;;;;;;;1.50;1.40;;;21.80;45.90;;;;;;5076130;28;20514;-88
2022/04/03 08:28:53;;;;;;;2.27;1.10;;;21.90;46.20;;;;;;5076495;28;20444;-88
2022/04/03 08:31:22;;;;;;;1.37;1.10;;;21.90;46.50;;;;;;5076349;28;20471;-91
2022/04/03 08:33:49;;;;;;;2.20;1.10;;;21.90;46.50;;;;;;5076325;28;20548;-86
2022/04/03 08:36:18;;;;;;;2.30;1.20;;;22.00;45.80;;;;;;5075648;28;20440;-85
2022/04/03 08:38:45;;;;;;;2.07;1.33;;;22.00;45.90;;;;;;5075521;28;20812;-85
2022/04/03 08:41:12;;;;;;;7.67;1.17;;;22.00;46.00;;;;;;5075338;28;20484;-85
2022/04/03 08:43:40;;;;;;;1.63;1.10;;;22.10;46.30;;;;;;5074977;28;20445;-85
2022/04/03 08:46:08;;;;;;;1.33;0.93;;;22.00;46.30;;;;;;5075021;28;20456;-85
2022/04/03 08:48:37;;;;;;;2.70;1.10;;;22.00;46.40;;;;;;5075496;28;20642;-85
2022/04/03 08:51:06;;;;;;;1.50;1.10;;;22.00;46.40;;;;;;5074292;28;20448;-85
2022/04/03 08:53:35;;;;;;;1.10;0.90;;;22.00;46.50;;;;;;5075053;28;20476;-85
2022/04/03 08:56:02;;;;;;;1.20;1.10;;;22.00;46.50;;;;;;5074714;28;20445;-85
2022/04/03 08:58:28;;;;;;;2.17;1.03;;;22.00;46.60;;;;;;5074815;28;20944;-84
2022/04/03 09:00:56;;;;;;;1.00;0.80;;;22.10;46.60;;;;;;5074709;28;20484;-85
2022/04/03 09:03:23;;;;;;;5.77;1.20;;;21.90;46.50;;;;;;5075128;28;20943;-85
2022/04/03 09:05:49;;;;;;;1.70;1.00;;;22.10;46.60;;;;;;5074918;28;20452;-85
2022/04/03 09:08:16;;;;;;;2.40;1.43;;;21.90;46.50;;;;;;5075079;28;20432;-85
2022/04/03 09:11:04;;;;;;;1.87;1.67;;;21.90;46.50;;;;;;5075378;28;20520;-85
2022/04/03 09:13:31;;;;;;;2.20;1.10;;;22.10;46.60;;;;;;5075537;28;20441;-84
2022/04/03 09:15:57;;;;;;;1.20;1.03;;;21.90;46.50;;;;;;5075323;28;20806;-85
2022/04/03 09:18:24;;;;;;;1.97;1.17;;;21.90;46.50;;;;;;5075210;28;20480;-85
2022/04/03 09:20:51;;;;;;;2.53;1.10;;;21.90;46.60;;;;;;5075336;28;20507;-88
2022/04/03 09:23:20;;;;;;;1.77;1.10;;;21.90;46.60;;;;;;5075415;28;20441;-85
2022/04/03 09:25:48;;;;;;;1.50;1.00;;;21.90;46.60;;;;;;5075226;28;20788;-85
2022/04/03 09:28:15;;;;;;;1.20;0.83;;;21.90;46.60;;;;;;5075084;28;20436;-85
2022/04/03 09:30:45;;;;;;;1.33;1.10;;;21.90;46.70;;;;;;5075088;28;20480;-85
2022/04/03 09:33:13;;;;;;;1.17;0.93;;;21.90;46.60;;;;;;5074896;28;20441;-85
2022/04/03 09:35:57;;;;;;;1.70;1.27;;;21.90;46.70;;;;;;5056919;28;20432;-85
2022/04/03 09:38:25;;;;;;;1.20;1.10;;;21.90;46.70;;;;;;5075315;28;20516;-85
2022/04/03 09:40:54;;;;;;;1.13;0.87;;;21.80;46.60;;;;;;5074702;28;21032;-85
2022/04/03 09:43:22;;;;;;;1.50;0.97;;;21.80;46.60;;;;;;5074716;28;20911;-85
2022/04/03 09:45:51;;;;;;;1.87;1.30;;;21.80;46.60;;;;;;5074706;28;20452;-85
2022/04/03 09:48:23;;;;;;;1.20;0.90;;;21.80;46.60;;;;;;5075154;28;20455;-85
2022/04/03 09:51:11;;;;;;;1.83;1.27;;;21.80;46.60;;;;;;5075038;28;20783;-85
2022/04/03 09:53:44;;;;;;;2.33;1.30;;;21.90;46.70;;;;;;5069416;28;20437;-83
2022/04/03 09:56:14;;;;;;;1.90;1.10;;;21.90;46.70;;;;;;5074833;28;20483;-85
2022/04/03 09:58:59;;;;;;;4.47;1.23;;;21.80;46.60;;;;;;5074526;28;20433;-85
2022/04/03 10:01:27;;;;;;;1.47;0.90;;;21.90;46.70;;;;;;5073918;28;20507;-85
2022/04/03 10:03:55;;;;;;;2.17;0.93;;;21.80;46.60;;;;;;5074470;28;20444;-86
2022/04/03 10:06:23;;;;;;;1.10;0.93;;;21.80;46.60;;;;;;5074383;28;20443;-85
2022/04/03 10:08:50;;;;;;;1.37;1.10;;;21.80;46.60;;;;;;5074579;28;20795;-85
2022/04/03 10:11:19;;;;;;;1.33;1.07;;;21.80;46.60;;;;;;5074070;28;20437;-85
2022/04/03 10:13:47;;;;;;;1.40;1.00;;;22.00;46.70;;;;;;5074108;28;20508;-85
2022/04/03 10:16:16;;;;;;;2.00;1.20;;;21.80;46.60;;;;;;5074244;28;20803;-84
2022/04/03 10:18:43;;;;;;;1.00;0.90;;;21.80;46.60;;;;;;5073770;28;20476;-85
2022/04/03 10:21:15;;;;;;;1.40;1.00;;;21.80;46.50;;;;;;5074173;28;20531;-84
2022/04/03 10:23:44;;;;;;;1.03;0.90;;;22.00;46.60;;;;;;5074041;28;20436;-85
2022/04/03 10:26:16;;;;;;;1.40;1.03;;;21.90;46.50;;;;;;5073890;28;20960;-85
2022/04/03 10:28:50;;;;;;;1.20;1.00;;;21.90;46.50;;;;;;5073755;28;20449;-85
2022/04/03 10:31:18;;;;;;;1.20;1.10;;;22.10;46.60;;;;;;5073737;28;20832;-85
2022/04/03 10:33:49;;;;;;;2.13;0.97;;;22.00;46.60;;;;;;5073831;28;20957;-86
2022/04/03 10:36:23;;;;;;;1.10;0.83;;;22.10;46.60;;;;;;5073667;28;20468;-85
2022/04/03 10:38:58;;;;;;;1.53;0.80;;;22.10;46.60;;;;;;5073922;28;20437;-85
2022/04/03 10:41:30;;;;;;;1.00;0.80;;;22.20;46.70;;;;;;5073829;28;20537;-85
2022/04/03 10:44:21;;;;;;;1.27;1.17;;;22.20;46.70;;;;;;5073719;28;20477;-85
2022/04/03 10:47:22;;;;;;;1.43;1.20;;;22.30;46.70;;;;;;5073723;28;20471;-85
2022/04/03 10:50:00;;;;;;;1.03;0.80;;;22.30;46.70;;;;;;5073548;28;20445;-86
2022/04/03 10:52:46;;;;;;;1.70;1.03;;;22.30;46.80;;;;;;5073717;28;20440;-84
2022/04/03 10:55:15;;;;;;;1.20;0.90;;;22.40;46.90;;;;;;5073531;28;20935;-84
2022/04/03 10:57:43;;;;;;;1.23;1.10;;;22.40;46.90;;;;;;5073517;28;20433;-84
2022/04/03 11:00:37;;;;;;;1.10;0.90;;;22.40;46.90;;;;;;5073367;28;20473;-84
2022/04/03 11:03:35;;;;;;;1.10;0.90;;;22.50;46.90;;;;;;5073609;28;20933;-88
2022/04/03 11:06:22;;;;;;;1.00;0.80;;;22.50;47.00;;;;;;5073526;28;20452;-84
2022/04/03 11:09:01;;;;;;;1.17;0.80;;;22.50;47.00;;;;;;5073746;28;20417;-85
2022/04/03 11:11:37;;;;;;;1.20;1.07;;;22.60;47.10;;;;;;5073539;28;20432;-87
2022/04/03 11:14:06;;;;;;;1.00;0.87;;;22.60;47.10;;;;;;5072538;28;20440;-85
2022/04/03 11:16:51;;;;;;;1.10;1.00;;;22.70;47.50;;;;;;5073316;28;20444;-85
2022/04/03 11:19:37;;;;;;;1.10;0.80;;;22.70;47.00;;;;;;5055396;28;20467;-85
2022/04/03 11:22:05;;;;;;;1.40;0.97;;;22.70;47.00;;;;;;5073287;28;20495;-84
2022/04/03 11:24:37;;;;;;;1.67;0.80;;;22.70;47.00;;;;;;5073324;28;20594;-85
2022/04/03 11:27:05;;;;;;;1.07;0.90;;;22.70;47.00;;;;;;5073229;28;21019;-85
2022/04/03 11:29:32;;;;;;;1.77;0.80;;;22.70;47.00;;;;;;5073243;28;20441;-85
2022/04/03 11:32:03;;;;;;;1.73;0.90;;;22.80;47.10;;;;;;5073136;28;20468;-85
2022/04/03 11:34:31;;;;;;;1.00;0.77;;;22.80;47.10;;;;;;5073412;28;20471;-85
2022/04/03 11:36:58;;;;;;;1.10;0.80;;;22.80;47.10;;;;;;5073094;28;20805;-85
2022/04/03 11:39:32;;;;;;;1.53;0.80;;;22.80;47.10;;;;;;5073230;28;20436;-85
2022/04/03 11:42:03;;;;;;;1.00;0.73;;;22.90;47.20;;;;;;5073277;28;20480;-85
2022/04/03 11:44:30;;;;;;;1.10;0.80;;;23.00;47.20;;;;;;5073115;28;20446;-85
2022/04/03 11:46:57;;;;;;;1.10;0.90;;;22.80;47.00;;;;;;5073075;28;20437;-87
2022/04/03 11:49:28;;;;;;;2.23;0.90;;;23.00;47.20;;;;;;5072924;28;20935;-84
2022/04/03 11:51:57;;;;;;;1.10;0.90;;;22.90;47.00;;;;;;5073054;28;20444;-85
2022/04/03 11:54:25;;;;;;;1.00;0.87;;;22.90;47.00;;;;;;5072967;28;20472;-85
2022/04/03 11:56:58;;;;;;;1.00;0.70;;;22.90;47.00;;;;;;5072815;28;20811;-85
2022/04/03 11:59:25;;;;;;;1.10;0.97;;;23.00;47.00;;;;;;5073100;28;20448;-85
2022/04/03 12:01:52;;;;;;;1.00;0.87;;;23.00;47.00;;;;;;5072764;28;20835;-85
2022/04/03 12:04:21;;;;;;;1.00;0.73;;;22.90;47.00;;;;;;5072908;28;20448;-85
2022/04/03 12:06:52;;;;;;;1.30;1.00;;;23.00;47.10;;;;;;5072865;28;20813;-86
2022/04/03 12:09:21;;;;;;;1.00;0.73;;;23.10;47.10;;;;;;5072725;28;20460;-86
2022/04/03 12:11:51;;;;;;;1.40;0.77;;;22.90;47.00;;;;;;5072680;28;20441;-85
2022/04/03 12:14:24;;;;;;;1.00;0.80;;;22.90;47.00;;;;;;5072722;28;20471;-85
2022/04/03 12:16:58;;;;;;;1.10;0.80;;;23.00;47.00;;;;;;5072669;28;20448;-85
2022/04/03 12:19:25;;;;;;;1.10;0.80;;;23.00;47.00;;;;;;5072819;28;20498;-85
2022/04/03 12:21:56;;;;;;;1.10;0.93;;;22.90;47.00;;;;;;5072601;28;20487;-85
2022/04/03 12:24:24;;;;;;;1.00;0.80;;;22.90;47.00;;;;;;5072828;28;20472;-85
2022/04/03 12:26:54;;;;;;;1.20;0.80;;;22.90;47.00;;;;;;5076206;28;20445;-85
2022/04/03 12:29:22;;;;;;;1.20;0.90;;;22.90;47.00;;;;;;5076327;28;20436;-85
2022/04/03 12:32:00;;;;;;;1.20;0.90;;;22.90;47.00;;;;;;5076366;28;20468;-85
2022/04/03 12:34:27;;;;;;;1.00;0.73;;;23.00;47.10;;;;;;5076275;28;20444;-85
2022/04/03 12:36:57;;;;;;;1.10;0.80;;;22.90;47.10;;;;;;5076354;28;20448;-85
2022/04/03 12:39:38;;;;;;;0.90;0.70;;;22.80;47.00;;;;;;5076082;28;20936;-85
2022/04/03 12:42:20;;;;;;;1.10;0.90;;;22.80;47.00;;;;;;5075941;28;20485;-85
2022/04/03 12:44:51;;;;;;;1.20;0.83;;;22.90;47.00;;;;;;5075898;28;20445;-85
2022/04/03 12:47:20;;;;;;;1.00;0.80;;;22.80;47.00;;;;;;5076154;28;20440;-84
2022/04/03 12:50:08;;;;;;;0.93;0.70;;;22.80;47.00;;;;;;5075898;28;20441;-88
2022/04/03 12:52:40;;;;;;;1.00;0.73;;;22.80;47.00;;;;;;5058109;28;20436;-85
2022/04/03 12:55:09;;;;;;;1.00;0.80;;;22.90;47.10;;;;;;5075865;28;20790;-87